ADDS METAR Data INFO
IDs: Format: Raw Decoded Include TAF

Data at: 0146 UTC 17 Oct 2017

PAEG 170053Z AUTO 00000KT 10SM FEW022 OVC032 M01/M06 A2954 RMK AO2 SLP015 T10111056 TSNO
PAEG 170050Z AUTO 00000KT 10SM SCT023 OVC032 M01/M06 A2954 RMK AO2 TSNO
PAEG 170002Z AUTO 00000KT 10SM BKN024 BKN030 OVC037 M01/M06 A2954 RMK AO2 T10111061 TSNO
PAEG 162353Z AUTO 00000KT 10SM SCT024 OVC037 M01/M06 A2955 RMK AO2 SLP016 T10111061 11011 21039 55005 TSNO
PAEG 162253Z AUTO 00000KT 10SM OVC044 M01/M07 A2954 RMK AO2 SLP016 T10111067 TSNO
PAEG 162200Z AUTO 00000KT 10SM SCT019 OVC045 M02/M07 A2955 RMK AO2 T10171067 TSNO
PAEG 162153Z AUTO 00000KT 10SM BKN019 OVC045 M02/M07 A2955 RMK AO2 SLP019 T10171067 TSNO
PAEG 162107Z AUTO 27003KT 10SM OVC015 M02/M06 A2956 RMK AO2 T10221061 TSNO
PAEG 162053Z AUTO 25003KT 10SM OVC014 M03/M06 A2956 RMK AO2 SLP021 T10281061 52002 TSNO
PAEG 162028Z AUTO VRB04KT 10SM OVC014 M03/M06 A2956 RMK AO2 T10281061 TSNO
PAEG 161953Z AUTO 27004KT 10SM OVC015 M03/M07 A2956 RMK AO2 SLP021 T10281067 TSNO
PAEG 161853Z AUTO 28004KT 10SM OVC016 M04/M07 A2956 RMK AO2 SLP021 T10391072 TSNO
PAEG 161753Z AUTO 28004KT 10SM OVC016 M04/M07 A2955 RMK AO2 SLP020 T10391072 11028 21044 58001 TSNO
PAEG 161653Z AUTO 28004KT 10SM OVC016 M04/M07 A2956 RMK AO2 SLP022 T10441067 TSNO
PAEG 161553Z AUTO 28005KT 10SM OVC017 M04/M07 A2956 RMK AO2 SLP022 T10391067 TSNO
PAEG 161453Z AUTO 30003KT 10SM OVC019 M04/M07 A2956 RMK AO2 SLP021 T10391067 56003 TSNO
PAEG 161353Z AUTO 29003KT 10SM OVC019 M04/M07 A2956 RMK AO2 SLP021 T10391067 TSNO
PAEG 161253Z AUTO 00000KT 10SM OVC019 M03/M06 A2956 RMK AO2 SLP021 T10331061 TSNO
PAEG 161153Z AUTO 28004KT 10SM OVC020 M03/M06 A2957 RMK AO2 SLP023 T10331061 11011 21033 50001 TSNO
PAEG 161053Z AUTO 27004KT 10SM OVC019 M03/M06 A2958 RMK AO2 SLP026 T10281061 TSNO
PAEG 160953Z AUTO 25004KT 10SM OVC019 M03/M06 A2957 RMK AO2 SLP026 T10281056 TSNO
PAEG 160853Z AUTO 26005KT 10SM OVC019 M02/M06 A2956 RMK AO2 SLP022 T10221056 400171022 52007 TSNO
PAEG 160753Z AUTO 26004KT 10SM OVC023 M02/M06 A2956 RMK AO2 SLP019 T10171056 TSNO
PAEG 160653Z AUTO 28005KT 10SM OVC021 M02/M05 A2955 RMK AO2 SLP017 T10171050 TSNO
PAEG 160553Z AUTO 27005KT 10SM OVC023 M01/M05 A2954 RMK AO2 SLP014 60000 T10111050 10017 21011 53008 TSNO
PAEG 160453Z AUTO 29008KT 10SM OVC022 M01/M04 A2953 RMK AO2 SLP012 T10111039 TSNO
PAEG 160353Z AUTO 29007KT 10SM OVC024 M01/M03 A2952 RMK AO2 UPE47 SLP008 P0000 T10061033 TSNO
PAEG 160253Z AUTO 29005KT 10SM UP BKN025 OVC030 00/M03 A2952 RMK AO2 SLP006 P0000 60000 T00001033 53004 TSNO
PAEG 160153Z AUTO 30005KT 10SM UP BKN024 OVC032 01/M02 A2951 RMK AO2 UPB0054E00B09SNB00E09 SLP004 P0000 T00061022 TSNO
PAEG 160102Z AUTO 28003KT 9SM -SN SCT018 BKN023 OVC030 01/M01 A2950 RMK AO2 UPB0054E00SNB00 P0000 T00111006 TSNO
PAEG 160053Z AUTO 27003KT 10SM SCT020 OVC031 02/M01 A2950 RMK AO2 UPB01E13 SLP001 P0000 T00171011 TSNO
PAEG 160041Z AUTO 00000KT 10SM FEW022 OVC031 02/M01 A2950 RMK AO2 UPB01E13 P0000 T00171011 TSNO
PAEG 152353Z AUTO 00000KT 10SM OVC027 02/M01 A2950 RMK AO2 UPE2254RAB2254E2255 SLP000 P0000 60000 T00171006 10017 21006 58002 TSNO
PAEG 152253Z AUTO 00000KT 10SM UP OVC020 01/00 A2951 RMK AO2 UPB14SNE14 SLP002 P0000 T00110000 TSNO
PAEG 152216Z AUTO 00000KT 6SM UP BR FEW009 OVC019 01/M01 A2951 RMK AO2 UPB14SNE14 P0000 T00061006 TSNO
PAEG 152207Z AUTO 00000KT 2SM -SN BR FEW010 BKN017 OVC024 01/M01 A2951 RMK AO2 P0000 T00061006 TSNO
PAEG 152200Z AUTO 00000KT 3SM -SN BR FEW010 BKN017 OVC025 01/M01 A2951 RMK AO2 P0000 T00061006 TSNO
PAEG 152153Z AUTO 00000KT 2 1/2SM -SN BR SCT008 BKN017 OVC025 01/M01 A2951 RMK AO2 SLP003 P0000 T00061006 TSNO
PAEG 152149Z AUTO 00000KT 1 1/2SM -SN BR FEW008 SCT017 OVC025 01/M01 A2951 RMK AO2 P0000 TSNO
PAEG 152138Z AUTO 00000KT 2 1/2SM -SN BR FEW008 BKN018 OVC028 01/M01 A2951 RMK AO2 P0000 T00061011 TSNO
PAEG 152127Z AUTO 00000KT 1 1/2SM -SN BR FEW008 BKN020 OVC028 01/M01 A2951 RMK AO2 P0000 T00061011 TSNO
PAEG 152105Z AUTO 00000KT 1SM -SN BR SCT010 OVC019 01/M01 A2951 RMK AO2 P0000 T00061011 TSNO
PAEG 152053Z AUTO 00000KT 2SM -SN BR SCT008 OVC021 01/M01 A2951 RMK AO2 UPE30SNB30 SLP003 P0000 60000 T00061011 56003 TSNO
PAEG 152036Z AUTO 00000KT 1 1/2SM -SN BR SCT008 OVC020 01/M01 A2951 RMK AO2 UPE30SNB30 P0000 T00061011 TSNO
PAEG 152032Z AUTO 06003KT 2 1/2SM -SN BR BKN008 OVC018 01/M01 A2951 RMK AO2 UPE30SNB30 P0000 T00061011 TSNO
PAEG 152015Z AUTO 00000KT 5SM UP BR SCT008 OVC017 01/M01 A2951 RMK AO2 P0000 T00061011 TSNO
PAEG 151953Z AUTO 00000KT 9SM UP OVC008 01/M01 A2951 RMK AO2 SLP004 P0000 T00061011 TSNO
PAEG 151943Z AUTO 00000KT 8SM UP BKN008 OVC016 01/M01 A2951 RMK AO2 P0000 T00061011 TSNO
PAEG 151934Z AUTO 00000KT 9SM UP SCT008 OVC016 01/M01 A2951 RMK AO2 P0000 T00061011 TSNO
PAEG 151853Z AUTO 00000KT 10SM UP OVC015 00/M02 A2951 RMK AO2 UPB00E10B46 SLP004 P0000 T00001017 TSNO
PAEG 151825Z AUTO 00000KT 10SM SCT009 OVC013 00/M02 A2951 RMK AO2 UPB00E10 P0000 T00001017 TSNO
PAEG 151753Z AUTO 00000KT 10SM OVC009 M01/M02 A2952 RMK AO2 SLP006 T10061017 11006 21017 58008 TSNO
PAEG 151736Z AUTO 00000KT 10SM BKN009 OVC014 M01/M02 A2952 RMK AO2 CIG 006V011 T10061017 TSNO
PAEG 151727Z AUTO 00000KT 10SM SCT007 OVC014 M01/M02 A2952 RMK AO2 T10061017 TSNO
PAEG 151653Z AUTO 00000KT 10SM OVC014 M01/M02 A2953 RMK AO2 SLP009 T10061017 TSNO
PAEG 151553Z AUTO 00000KT 10SM OVC013 M01/M02 A2953 RMK AO2 SLP012 T10111022 TSNO
PAEG 151542Z AUTO 00000KT 10SM OVC013 M01/M02 A2954 RMK AO2 T10111022 TSNO
PAEG 151532Z AUTO 00000KT 10SM OVC015 M01/M02 A2954 RMK AO2 T10111022 TSNO
PAEG 151519Z AUTO 00000KT 10SM OVC013 M01/M02 A2954 RMK AO2 T10111022 TSNO
PAEG 151453Z AUTO 00000KT 10SM OVC017 M01/M02 A2954 RMK AO2 SLP014 T10111022 58007 TSNO
PAEG 151353Z AUTO 00000KT 10SM BKN021 OVC035 M02/M03 A2955 RMK AO2 SLP016 T10171028 TSNO